createdAt,value
2022-12-15T00:10:02.238Z,95390.53
2022-12-15T00:20:25.536Z,95402.63
2022-12-15T00:30:49.896Z,95432.91
2022-12-15T00:40:59.624Z,95446.09
2022-12-15T00:51:04.058Z,95457.73
2022-12-15T01:01:30.502Z,95461.22
2022-12-15T01:11:53.036Z,95473.06
2022-12-15T01:21:57.113Z,95483.70
2022-12-15T01:32:01.661Z,95512.27
2022-12-15T01:42:05.685Z,95505.60
2022-12-15T01:52:11.088Z,95506.52
2022-12-15T02:02:16.663Z,95514.38
2022-12-15T02:12:32.354Z,95526.08
2022-12-15T02:22:48.287Z,95543.54
2022-12-15T02:33:01.854Z,95551.61
2022-12-15T02:43:07.277Z,95552.26
2022-12-15T02:53:23.506Z,95560.42
2022-12-15T03:03:29.876Z,95567.20
2022-12-15T03:13:34.463Z,95573.32
2022-12-15T03:23:39.003Z,95579.82
2022-12-15T03:33:42.930Z,95590.23
2022-12-15T03:43:49.583Z,95593.36
2022-12-15T03:53:54.912Z,95611.53
2022-12-15T04:04:01.224Z,95628.95
2022-12-15T04:14:05.513Z,95637.11
2022-12-15T04:24:28.415Z,95642.48
2022-12-15T04:34:51.002Z,95649.77
2022-12-15T04:45:21.035Z,95671.84
2022-12-15T04:55:43.736Z,95675.94
2022-12-15T05:06:06.776Z,95682.98
2022-12-15T05:16:29.390Z,95687.29
2022-12-15T05:26:53.187Z,95704.98
2022-12-15T05:36:59.508Z,95727.19
2022-12-15T05:47:05.238Z,95736.30
2022-12-15T05:57:09.834Z,95760.25
2022-12-15T06:07:13.896Z,95787.69
2022-12-15T06:17:17.977Z,95799.92
2022-12-15T06:27:22.166Z,95814.18
2022-12-15T06:37:26.535Z,95827.98
2022-12-15T06:47:30.442Z,95841.70
2022-12-15T06:57:34.456Z,95882.73
2022-12-15T07:07:38.461Z,95900.02
2022-12-15T07:17:42.625Z,95911.52
2022-12-15T07:27:47.409Z,95922.43
2022-12-15T07:37:51.784Z,95934.83
2022-12-15T07:47:55.965Z,95948.85
2022-12-15T07:58:00.134Z,95964.02
2022-12-15T08:08:04.532Z,95977.02
2022-12-15T08:18:09.824Z,96001.65
2022-12-15T08:28:13.910Z,96025.83
2022-12-15T08:38:17.803Z,96037.94
2022-12-15T08:48:21.919Z,96052.51
2022-12-15T08:58:25.957Z,96071.29
2022-12-15T09:08:31.245Z,96074.41
2022-12-15T09:18:35.889Z,96076.76
2022-12-15T09:28:40.279Z,96078.05
2022-12-15T09:38:45.240Z,96063.58
2022-12-15T09:48:50.805Z,96057.39
2022-12-15T09:59:14.693Z,96052.23
2022-12-15T10:09:22.097Z,96049.73
2022-12-15T10:19:42.790Z,96043.74
2022-12-15T10:29:55.665Z,96049.23
2022-12-15T10:39:59.642Z,96058.26
2022-12-15T10:50:25.158Z,96057.17
2022-12-15T11:00:32.574Z,96070.34
2022-12-15T11:10:55.253Z,96076.51
2022-12-15T11:21:12.882Z,96093.39
2022-12-15T11:31:32.362Z,96099.92
2022-12-15T11:41:45.440Z,96116.98
2022-12-15T11:52:27.070Z,96121.02
2022-12-15T12:02:37.503Z,96135.17
2022-12-15T12:13:23.457Z,96141.77
2022-12-15T12:23:44.985Z,96154.60
2022-12-15T12:33:56.242Z,96154.21
2022-12-15T12:44:19.732Z,96138.61
2022-12-15T12:54:38.801Z,96139.88
2022-12-15T13:04:49.980Z,96170.39
2022-12-15T13:14:55.385Z,96164.45
2022-12-15T13:24:59.481Z,96173.44
2022-12-15T13:35:13.263Z,96167.38
2022-12-15T13:45:38.568Z,96155.20
2022-12-15T13:55:59.172Z,96173.90
2022-12-15T14:06:03.459Z,96194.52
2022-12-15T14:16:22.725Z,96205.03
2022-12-15T14:26:32.073Z,96218.42
2022-12-15T14:36:37.135Z,96226.95
2022-12-15T14:46:45.816Z,96228.20
2022-12-15T14:57:00.147Z,96256.91
2022-12-15T15:07:08.062Z,96272.98
2022-12-15T15:17:17.308Z,96263.23
2022-12-15T15:27:25.719Z,96260.44
2022-12-15T15:37:29.743Z,96257.08
2022-12-15T15:47:34.029Z,96285.27
2022-12-15T15:57:38.096Z,96308.61
2022-12-15T16:07:44.203Z,96309.55
2022-12-15T16:17:48.810Z,96286.88
2022-12-15T16:27:52.562Z,96286.61
2022-12-15T16:37:57.078Z,96284.77
2022-12-15T16:48:02.181Z,96291.07
2022-12-15T16:58:07.669Z,96293.88
2022-12-15T17:08:28.389Z,96290.84
2022-12-15T17:18:34.268Z,96299.44
2022-12-15T17:28:38.675Z,96302.21
2022-12-15T17:38:43.296Z,96274.65
2022-12-15T17:48:48.185Z,96253.95
2022-12-15T17:58:52.727Z,96237.64
2022-12-15T18:08:57.282Z,96249.35
2022-12-15T18:19:03.469Z,96262.71
2022-12-15T18:29:18.343Z,96274.65
2022-12-15T18:39:24.628Z,96295.13
2022-12-15T18:49:29.412Z,96294.46
2022-12-15T18:59:34.569Z,96291.27
2022-12-15T19:09:39.358Z,96278.21
2022-12-15T19:20:05.768Z,96263.86
2022-12-15T19:30:19.334Z,96231.39
2022-12-15T19:40:30.644Z,96241.04
2022-12-15T19:50:38.108Z,96245.92
2022-12-15T20:00:46.306Z,96247.92
2022-12-15T20:10:52.537Z,96238.91
2022-12-15T20:20:59.857Z,96236.76
2022-12-15T20:31:05.035Z,96234.55
2022-12-15T20:41:21.918Z,96243.14
2022-12-15T20:51:32.383Z,96237.73
2022-12-15T21:01:43.528Z,96221.60
2022-12-15T21:11:49.304Z,96213.20
2022-12-15T21:21:55.895Z,96191.14
2022-12-15T21:32:00.435Z,96183.27
2022-12-15T21:42:08.760Z,96178.87
2022-12-15T21:52:12.984Z,96167.27
2022-12-15T22:02:22.843Z,96140.84
2022-12-15T22:12:28.481Z,96131.83
2022-12-15T22:22:32.167Z,96129.50
2022-12-15T22:32:36.493Z,96126.39
2022-12-15T22:42:44.624Z,96115.90
2022-12-15T22:52:49.426Z,96113.83
2022-12-15T23:02:54.145Z,96091.24
2022-12-15T23:12:59.464Z,96070.06
2022-12-15T23:23:04.631Z,96059.67
2022-12-15T23:33:09.315Z,96061.86
2022-12-15T23:43:14.077Z,96053.09
2022-12-15T23:53:18.574Z,96047.30
